createdAt,value
2022-10-02T00:01:47.803Z,999.85
2022-10-02T00:06:47.635Z,999.95
2022-10-02T00:11:47.560Z,999.97
2022-10-02T00:16:47.568Z,999.99
2022-10-02T00:21:47.489Z,1000.06
2022-10-02T00:26:47.373Z,1000.18
2022-10-02T00:31:47.345Z,1000.14
2022-10-02T00:36:47.232Z,1000.07
2022-10-02T00:41:47.178Z,1000.13
2022-10-02T00:46:47.134Z,1000.16
2022-10-02T00:51:47.078Z,1000.17
2022-10-02T00:56:46.970Z,1000.39
2022-10-02T01:01:46.985Z,1000.34
2022-10-02T01:06:47.037Z,1000.53
2022-10-02T01:11:46.851Z,1000.48
2022-10-02T01:16:46.844Z,1000.49
2022-10-02T01:21:46.635Z,1000.63
2022-10-02T01:26:46.619Z,1000.61
2022-10-02T01:31:46.536Z,1000.78
2022-10-02T01:36:46.445Z,1000.74
2022-10-02T01:41:46.365Z,1000.92
2022-10-02T01:46:46.342Z,1000.90
2022-10-02T01:51:46.230Z,1000.86
2022-10-02T01:56:46.278Z,1000.92
2022-10-02T02:01:46.176Z,1000.96
2022-10-02T02:06:46.055Z,1001.08
2022-10-02T02:11:46.121Z,1001.01
2022-10-02T02:16:45.987Z,1001.02
2022-10-02T02:21:45.848Z,1001.08
2022-10-02T02:26:45.880Z,1001.19
2022-10-02T02:31:45.770Z,1001.07
2022-10-02T02:36:45.653Z,1001.09
2022-10-02T02:41:45.565Z,1001.08
2022-10-02T02:46:45.492Z,1001.17
2022-10-02T02:51:45.444Z,1001.22
2022-10-02T02:56:45.376Z,1001.14
2022-10-02T03:01:45.338Z,1001.21
2022-10-02T03:06:45.238Z,1001.29
2022-10-02T03:11:45.179Z,1001.27
2022-10-02T03:16:45.141Z,1001.29
2022-10-02T03:21:45.055Z,1001.42
2022-10-02T03:26:44.969Z,1001.39
2022-10-02T03:31:44.933Z,1001.35
2022-10-02T03:36:44.832Z,1001.31
2022-10-02T03:41:44.783Z,1001.33
2022-10-02T03:46:44.758Z,1001.37
2022-10-02T03:51:44.663Z,1001.36
2022-10-02T03:56:44.584Z,1001.39
2022-10-02T04:01:48.982Z,1001.37
2022-10-02T04:06:44.435Z,1001.49
2022-10-02T04:11:44.393Z,1001.56
2022-10-02T04:16:44.360Z,1001.49
2022-10-02T04:21:44.414Z,1001.66
2022-10-02T04:26:44.179Z,1001.78
2022-10-02T04:31:44.182Z,1001.60
2022-10-02T04:36:44.051Z,1001.69
2022-10-02T04:41:44.163Z,1001.77
2022-10-02T04:46:43.919Z,1001.64
2022-10-02T04:51:43.868Z,1001.67
2022-10-02T04:56:43.782Z,1001.75
2022-10-02T05:01:43.787Z,1001.74
2022-10-02T05:06:43.664Z,1001.71
2022-10-02T05:11:43.597Z,1001.82
2022-10-02T05:16:43.590Z,1001.78
2022-10-02T05:21:43.472Z,1001.72
2022-10-02T05:26:43.450Z,1001.80
2022-10-02T05:31:43.463Z,1001.75
2022-10-02T05:36:43.292Z,1001.74
2022-10-02T05:41:43.234Z,1001.79
2022-10-02T05:46:43.174Z,1001.79
2022-10-02T05:51:43.076Z,1001.90
2022-10-02T05:56:43.002Z,1001.98
2022-10-02T06:01:42.958Z,1001.99
2022-10-02T06:06:42.877Z,1001.89
2022-10-02T06:11:42.814Z,1001.83
2022-10-02T06:16:42.842Z,1001.71
2022-10-02T06:21:42.671Z,1001.77
2022-10-02T06:26:42.603Z,1001.98
2022-10-02T06:31:42.684Z,1001.91
2022-10-02T06:36:42.472Z,1001.98
2022-10-02T06:41:42.389Z,1001.96
2022-10-02T06:46:42.373Z,1001.97
2022-10-02T06:51:42.317Z,1001.91
2022-10-02T06:56:42.217Z,1001.80
2022-10-02T07:01:42.205Z,1001.83
2022-10-02T07:06:42.087Z,1001.86
2022-10-02T07:11:42.041Z,1001.73
2022-10-02T07:16:42.045Z,1001.61
2022-10-02T07:21:41.896Z,1001.65
2022-10-02T07:26:41.840Z,1001.72
2022-10-02T07:31:41.842Z,1001.66
2022-10-02T07:36:41.741Z,1001.70
2022-10-02T07:41:41.683Z,1001.70
2022-10-02T07:46:41.611Z,1001.71
2022-10-02T07:51:41.544Z,1001.65
2022-10-02T07:56:41.445Z,1001.60
2022-10-02T08:01:41.454Z,1001.43
2022-10-02T08:06:41.316Z,1001.45
2022-10-02T08:11:41.257Z,1001.47
2022-10-02T08:16:41.345Z,1001.56
2022-10-02T08:21:41.145Z,1001.42
2022-10-02T08:26:41.472Z,1001.45
2022-10-02T08:31:41.170Z,1001.39
2022-10-02T08:36:41.066Z,1001.31
2022-10-02T08:41:41.024Z,1001.29
2022-10-02T08:46:40.825Z,1001.21
2022-10-02T08:51:40.742Z,1001.32
2022-10-02T08:56:40.686Z,1001.28
2022-10-02T09:01:40.596Z,1001.23
2022-10-02T09:06:40.546Z,1001.28
2022-10-02T09:11:40.480Z,1001.28
2022-10-02T09:16:40.740Z,1001.33
2022-10-02T09:21:40.352Z,1001.32
2022-10-02T09:26:40.280Z,1001.31
2022-10-02T09:31:40.323Z,1001.21
2022-10-02T09:36:40.162Z,1001.09
2022-10-02T09:41:40.155Z,1001.08
2022-10-02T09:46:40.340Z,1000.92
2022-10-02T09:51:39.970Z,1000.94
2022-10-02T10:52:32.311Z,1000.67
2022-10-02T10:57:32.134Z,1000.69
2022-10-02T11:02:32.276Z,1000.73
2022-10-02T11:07:31.972Z,1000.69
2022-10-02T11:12:31.911Z,1000.66
2022-10-02T11:17:31.870Z,1000.72
2022-10-02T11:22:31.789Z,1000.62
2022-10-02T11:27:31.710Z,1000.64
2022-10-02T11:32:31.647Z,1000.63
2022-10-02T11:37:31.615Z,1000.64
2022-10-02T11:42:31.524Z,1000.76
2022-10-02T11:47:31.460Z,1000.69
2022-10-02T11:52:31.412Z,1000.67
2022-10-02T11:57:31.349Z,1000.71
2022-10-02T12:02:31.342Z,1000.75
2022-10-02T12:07:31.244Z,1000.66
2022-10-02T12:12:31.123Z,1000.71
2022-10-02T12:17:31.071Z,1000.64
2022-10-02T12:22:31.005Z,1000.68
2022-10-02T12:27:30.965Z,1000.61
2022-10-02T12:32:30.877Z,1000.61
2022-10-02T12:37:30.806Z,1000.60
2022-10-02T12:42:30.793Z,1000.54
2022-10-02T12:47:30.686Z,1000.50
2022-10-02T12:52:30.609Z,1000.49
2022-10-02T12:57:32.609Z,1000.42
2022-10-02T13:02:49.468Z,1000.38
2022-10-02T13:07:31.410Z,1000.27
2022-10-02T13:12:30.554Z,1000.19
2022-10-02T13:17:30.408Z,1000.13
2022-10-02T13:22:30.224Z,1000.22
2022-10-02T13:27:31.676Z,1000.24
2022-10-02T13:32:30.100Z,1000.28
2022-10-02T13:37:30.051Z,1000.21
2022-10-02T13:42:29.982Z,1000.25
2022-10-02T13:47:29.908Z,1000.03
2022-10-02T13:52:29.899Z,1000.23
2022-10-02T13:57:29.766Z,1000.15
2022-10-02T14:02:29.705Z,1000.09
2022-10-02T14:07:29.685Z,1000.04
2022-10-02T14:12:29.580Z,1000.04
2022-10-02T14:17:29.544Z,1000.14
2022-10-02T14:22:29.454Z,1000.19
2022-10-02T14:27:29.392Z,1000.31
2022-10-02T14:32:29.325Z,1000.19
2022-10-02T14:37:29.238Z,1000.59
2022-10-02T14:42:29.185Z,1000.51
2022-10-02T14:47:29.119Z,1000.54
2022-10-02T14:52:29.044Z,1000.57
2022-10-02T14:57:28.979Z,1000.62
2022-10-02T15:02:28.914Z,1000.59
2022-10-02T15:07:29.001Z,1000.57
2022-10-02T15:12:28.773Z,1000.49
2022-10-02T15:17:28.712Z,1000.56
2022-10-02T15:22:28.648Z,1000.76
2022-10-02T15:27:28.572Z,1000.66
2022-10-02T15:32:28.525Z,1000.76
2022-10-02T15:37:28.442Z,1000.74
2022-10-02T15:42:28.363Z,1000.56
2022-10-02T15:47:28.314Z,1000.85
2022-10-02T15:52:28.251Z,1000.85
2022-10-02T15:57:28.215Z,1000.87
2022-10-02T16:02:28.199Z,1000.88
2022-10-02T16:07:28.085Z,1000.93
2022-10-02T16:12:28.178Z,1000.92
2022-10-02T16:17:27.930Z,1001.10
2022-10-02T16:22:28.026Z,1001.02
2022-10-02T16:27:27.787Z,1001.13
2022-10-02T16:32:27.728Z,1001.16
2022-10-02T16:37:27.723Z,1001.15
2022-10-02T16:42:27.657Z,1001.26
2022-10-02T16:47:27.549Z,1001.25
2022-10-02T16:52:27.669Z,1001.28
2022-10-02T16:57:27.459Z,1001.49
2022-10-02T17:02:27.664Z,1001.39
2022-10-02T17:07:27.268Z,1001.59
2022-10-02T17:12:27.267Z,1001.75
2022-10-02T17:17:27.141Z,1001.84
2022-10-02T17:22:27.490Z,1001.87
2022-10-02T17:27:26.976Z,1001.97
2022-10-02T17:32:26.935Z,1002.08
2022-10-02T17:37:26.849Z,1002.13
2022-10-02T17:42:26.793Z,1002.10
2022-10-02T17:47:26.737Z,1002.14
2022-10-02T17:52:26.687Z,1002.17
2022-10-02T17:57:26.668Z,1002.23
2022-10-02T18:02:26.686Z,1002.22
2022-10-02T18:07:26.439Z,1002.39
2022-10-02T18:12:27.470Z,1002.44
2022-10-02T18:17:26.313Z,1002.46
2022-10-02T18:22:26.412Z,1002.60
2022-10-02T18:27:26.189Z,1002.69
2022-10-02T18:32:26.184Z,1002.81
2022-10-02T18:37:26.093Z,1002.77
2022-10-02T18:42:26.037Z,1002.87
2022-10-02T18:47:25.998Z,1002.87
2022-10-02T18:52:25.929Z,1002.97
2022-10-02T18:57:25.893Z,1002.96
2022-10-02T19:02:25.762Z,1003.16
2022-10-02T19:07:25.689Z,1003.15
2022-10-02T19:12:25.606Z,1003.27
2022-10-02T19:17:25.663Z,1003.41
2022-10-02T19:22:25.476Z,1003.35
2022-10-02T19:27:25.620Z,1003.38
2022-10-02T19:32:25.341Z,1003.47
2022-10-02T19:37:25.270Z,1003.50
2022-10-02T19:42:25.227Z,1003.58
2022-10-02T19:47:25.138Z,1003.62
2022-10-02T19:52:25.088Z,1003.68
2022-10-02T19:57:25.003Z,1003.69
2022-10-02T20:02:24.995Z,1003.79
2022-10-02T20:07:24.925Z,1003.84
2022-10-02T20:12:24.805Z,1003.76
2022-10-02T20:17:24.755Z,1003.79
2022-10-02T20:22:24.668Z,1003.91
2022-10-02T20:27:24.621Z,1003.90
2022-10-02T20:32:24.726Z,1003.95
2022-10-02T20:37:24.483Z,1004.06
2022-10-02T20:42:24.411Z,1004.19
2022-10-02T20:47:24.335Z,1004.24
2022-10-02T20:52:24.285Z,1004.30
2022-10-02T20:57:37.963Z,1004.44
2022-10-02T21:02:25.197Z,1004.51
2022-10-02T21:07:24.085Z,1004.48
2022-10-02T21:12:24.404Z,1004.59
2022-10-02T21:17:23.977Z,1004.63
2022-10-02T21:22:23.911Z,1004.74
2022-10-02T21:27:23.901Z,1004.82
2022-10-02T21:32:23.762Z,1004.81
2022-10-02T21:37:23.852Z,1004.78
2022-10-02T21:42:23.705Z,1004.81
2022-10-02T21:47:23.857Z,1004.78
2022-10-02T21:52:23.489Z,1004.90
2022-10-02T21:57:23.454Z,1004.89
2022-10-02T22:02:23.379Z,1004.97
2022-10-02T22:07:23.296Z,1004.98
2022-10-02T22:12:23.207Z,1005.13
2022-10-02T22:17:23.134Z,1005.05
2022-10-02T22:22:23.082Z,1005.18
2022-10-02T22:27:23.003Z,1005.12
2022-10-02T22:32:22.944Z,1005.21
2022-10-02T22:37:22.913Z,1005.25
2022-10-02T22:42:22.796Z,1005.30
2022-10-02T22:47:22.756Z,1005.32
2022-10-02T22:52:22.701Z,1005.29
2022-10-02T22:57:22.603Z,1005.26
2022-10-02T23:02:22.627Z,1005.25
2022-10-02T23:07:22.486Z,1005.24
2022-10-02T23:12:26.611Z,1005.31
2022-10-02T23:17:23.671Z,1005.28
2022-10-02T23:22:22.263Z,1005.31
2022-10-02T23:27:22.206Z,1005.39
2022-10-02T23:32:22.173Z,1005.46
2022-10-02T23:37:22.110Z,1005.46
2022-10-02T23:42:22.026Z,1005.55
2022-10-02T23:47:22.008Z,1005.63
2022-10-02T23:52:21.952Z,1005.63
2022-10-02T23:57:21.867Z,1005.66
